Terminal Aerodrome Forecast
Issued by NWS Rapid City, SD

Home | Current Version | Previous Version | Text Only | Print | Product List | Glossary Off
Versions: 1 2 3 4 5 6 7 8 9 10 11 12 13 14 15

298
FTUS43 KUNR 211720
TAFRAP
TAF
KRAP 211720Z 2118/2218 14014KT P6SM SCT028 BKN035
     FM220200 13008KT P6SM OVC120
     FM220700 16006KT P6SM OVC150
     FM221400 23006KT P6SM SCT250
     FM221700 18007KT P6SM SCT250=

USA.gov is the U.S. government's official web portal to all federal, state and local government web resources and services.